DAUO/ELU METAR and TAF weather

Enter ICAO airport designator
Station Type Date Time Source
DAUO METAR 2020/02/16 20:00 UTC NOAA

DAUO 162000Z 12001KT CAVOK 16/08 Q1027


Station Type Date Time Source
DAUO Decoded METAR 2020/02/16 20:00 UTC NOAA

El Oued, Algeria (DAUO) 33-30N 006-07E 63M
Feb 16, 2020 - 03:00 PM EST / 2020.02.16 2000 UTC
Wind: from the ESE (120 degrees) at 1 MPH (1 KT):0
Visibility: greater than 7 mile(s):0
Temperature: 60 F (16 C)
Dew Point: 46 F (8 C)
Relative Humidity: 58%
Pressure (altimeter): 30.33 in. Hg (1027 hPa)
ob: DAUO 162000Z 12001KT CAVOK 16/08 Q1027
cycle: 20

Station Type Date Time Source
DAUO TAF 2017/11/09 18:03 UTC NOAA

TAF DAUO 091700Z 0918/1009 28010KT 9999 SCT033 SCT100 PROB30
TEMPO 0918/0924 28015G25KT 5000 -TSRA FEW036CB

Example: see airport list